sensor_id;sensor_type;location;lat;lon;timestamp;noise_LAeq;noise_LA_min;noise_LA_max;noise_LA01;noise_LA95
57092;Laerm;42968;52.094;4.328;2024-02-28T00:00:46;42.20;38.99;49.12;;
57092;Laerm;42968;52.094;4.328;2024-02-28T00:03:11;59.00;39.21;79.02;;
57092;Laerm;42968;52.094;4.328;2024-02-28T00:05:36;54.69;37.52;72.42;;
57092;Laerm;42968;52.094;4.328;2024-02-28T00:08:02;57.19;38.67;74.01;;
57092;Laerm;42968;52.094;4.328;2024-02-28T00:10:27;55.84;37.70;76.44;;
57092;Laerm;42968;52.094;4.328;2024-02-28T00:12:52;47.34;38.05;62.29;;
57092;Laerm;42968;52.094;4.328;2024-02-28T00:15:18;41.52;37.52;45.23;;
57092;Laerm;42968;52.094;4.328;2024-02-28T00:17:43;55.81;39.34;70.28;;
57092;Laerm;42968;52.094;4.328;2024-02-28T00:20:09;42.14;38.67;48.32;;
57092;Laerm;42968;52.094;4.328;2024-02-28T00:22:37;41.77;38.37;45.43;;
57092;Laerm;42968;52.094;4.328;2024-02-28T00:25:02;56.54;40.03;72.38;;
57092;Laerm;42968;52.094;4.328;2024-02-28T00:27:28;41.67;37.70;47.93;;
57092;Laerm;42968;52.094;4.328;2024-02-28T00:29:53;42.29;38.81;48.81;;
57092;Laerm;42968;52.094;4.328;2024-02-28T00:32:18;52.51;39.21;69.07;;
57092;Laerm;42968;52.094;4.328;2024-02-28T00:34:44;41.68;38.37;49.47;;
57092;Laerm;42968;52.094;4.328;2024-02-28T00:37:09;56.60;38.81;74.26;;
57092;Laerm;42968;52.094;4.328;2024-02-28T00:39:34;54.59;38.05;70.58;;
57092;Laerm;42968;52.094;4.328;2024-02-28T00:41:59;41.24;36.56;45.54;;
57092;Laerm;42968;52.094;4.328;2024-02-28T00:44:25;57.61;39.46;73.76;;
57092;Laerm;42968;52.094;4.328;2024-02-28T00:46:50;41.48;37.12;45.91;;
57092;Laerm;42968;52.094;4.328;2024-02-28T00:49:15;51.62;38.81;66.40;;
57092;Laerm;42968;52.094;4.328;2024-02-28T00:51:41;56.05;38.95;75.90;;
57092;Laerm;42968;52.094;4.328;2024-02-28T00:54:06;53.59;39.21;70.66;;
57092;Laerm;42968;52.094;4.328;2024-02-28T00:56:31;55.78;37.32;73.35;;
57092;Laerm;42968;52.094;4.328;2024-02-28T00:58:57;41.75;35.66;50.72;;
57092;Laerm;42968;52.094;4.328;2024-02-28T01:01:22;53.58;35.94;74.31;;
57092;Laerm;42968;52.094;4.328;2024-02-28T01:03:47;46.71;38.21;61.80;;
57092;Laerm;42968;52.094;4.328;2024-02-28T01:06:12;56.56;38.81;73.34;;
57092;Laerm;42968;52.094;4.328;2024-02-28T01:08:37;41.70;36.20;49.11;;
57092;Laerm;42968;52.094;4.328;2024-02-28T01:11:03;51.73;37.70;68.16;;
57092;Laerm;42968;52.094;4.328;2024-02-28T01:13:28;58.20;39.92;71.10;;
57092;Laerm;42968;52.094;4.328;2024-02-28T01:15:53;55.35;39.34;68.86;;
57092;Laerm;42968;52.094;4.328;2024-02-28T01:18:19;56.48;38.37;72.02;;
57092;Laerm;42968;52.094;4.328;2024-02-28T01:20:44;57.13;38.05;71.78;;
57092;Laerm;42968;52.094;4.328;2024-02-28T01:23:09;54.49;38.37;71.26;;
57092;Laerm;42968;52.094;4.328;2024-02-28T01:25:34;41.57;38.37;46.35;;
57092;Laerm;42968;52.094;4.328;2024-02-28T01:28:00;54.28;38.37;74.92;;
57092;Laerm;42968;52.094;4.328;2024-02-28T01:30:25;41.69;35.36;43.89;;
57092;Laerm;42968;52.094;4.328;2024-02-28T01:32:50;41.69;38.37;44.35;;
57092;Laerm;42968;52.094;4.328;2024-02-28T01:35:16;42.17;38.37;54.29;;
57092;Laerm;42968;52.094;4.328;2024-02-28T01:37:41;55.18;38.21;73.39;;
57092;Laerm;42968;52.094;4.328;2024-02-28T01:40:06;41.56;38.95;44.43;;
57092;Laerm;42968;52.094;4.328;2024-02-28T01:42:32;56.15;36.69;72.99;;
57092;Laerm;42968;52.094;4.328;2024-02-28T01:44:57;41.68;39.08;44.58;;
57092;Laerm;42968;52.094;4.328;2024-02-28T01:47:23;54.37;35.66;71.83;;
57092;Laerm;42968;52.094;4.328;2024-02-28T01:49:48;41.99;35.36;49.91;;
57092;Laerm;42968;52.094;4.328;2024-02-28T01:52:15;42.31;39.46;45.17;;
57092;Laerm;42968;52.094;4.328;2024-02-28T01:54:41;42.48;38.67;51.81;;
57092;Laerm;42968;52.094;4.328;2024-02-28T01:57:06;51.54;36.91;72.96;;
57092;Laerm;42968;52.094;4.328;2024-02-28T01:59:32;54.83;38.52;69.03;;
57092;Laerm;42968;52.094;4.328;2024-02-28T02:01:59;53.16;38.47;69.43;;
57092;Laerm;42968;52.094;4.328;2024-02-28T02:04:24;41.92;38.21;51.11;;
57092;Laerm;42968;52.094;4.328;2024-02-28T02:06:50;41.62;35.94;47.55;;
57092;Laerm;42968;52.094;4.328;2024-02-28T02:09:17;42.24;35.04;70.03;;
57092;Laerm;42968;52.094;4.328;2024-02-28T02:11:43;52.20;38.81;67.84;;
57092;Laerm;42968;52.094;4.328;2024-02-28T02:14:08;53.97;36.91;71.49;;
57092;Laerm;42968;52.094;4.328;2024-02-28T02:16:33;56.96;38.81;70.81;;
57092;Laerm;42968;52.094;4.328;2024-02-28T02:18:58;41.64;37.12;48.88;;
57092;Laerm;42968;52.094;4.328;2024-02-28T02:21:26;43.07;37.70;56.15;;
57092;Laerm;42968;52.094;4.328;2024-02-28T02:23:55;56.14;36.91;72.89;;
57092;Laerm;42968;52.094;4.328;2024-02-28T02:26:20;59.99;37.32;75.43;;
57092;Laerm;42968;52.094;4.328;2024-02-28T02:28:45;51.59;37.88;68.40;;
57092;Laerm;42968;52.094;4.328;2024-02-28T02:31:11;41.19;37.70;44.90;;
57092;Laerm;42968;52.094;4.328;2024-02-28T02:33:37;41.39;38.05;43.64;;
57092;Laerm;42968;52.094;4.328;2024-02-28T02:36:02;42.17;39.08;50.40;;
57092;Laerm;42968;52.094;4.328;2024-02-28T02:38:27;46.91;37.32;63.13;;
57092;Laerm;42968;52.094;4.328;2024-02-28T02:40:53;46.62;37.32;63.97;;
57092;Laerm;42968;52.094;4.328;2024-02-28T02:43:18;46.98;37.53;65.11;;
57092;Laerm;42968;52.094;4.328;2024-02-28T02:45:43;47.34;34.69;63.75;;
57092;Laerm;42968;52.094;4.328;2024-02-28T02:48:09;47.05;38.21;64.90;;
57092;Laerm;42968;52.094;4.328;2024-02-28T02:50:34;44.36;37.12;58.67;;
57092;Laerm;42968;52.094;4.328;2024-02-28T02:52:59;53.10;38.05;69.37;;
57092;Laerm;42968;52.094;4.328;2024-02-28T02:55:25;55.07;39.08;72.24;;
57092;Laerm;42968;52.094;4.328;2024-02-28T02:57:50;46.19;37.52;61.43;;
57092;Laerm;42968;52.094;4.328;2024-02-28T03:00:15;57.08;37.70;78.20;;
57092;Laerm;42968;52.094;4.328;2024-02-28T03:02:40;51.78;39.70;68.79;;
57092;Laerm;42968;52.094;4.328;2024-02-28T03:05:06;51.65;39.46;68.89;;
57092;Laerm;42968;52.094;4.328;2024-02-28T03:07:32;53.96;38.05;68.92;;
57092;Laerm;42968;52.094;4.328;2024-02-28T03:09:57;51.54;39.46;65.75;;
57092;Laerm;42968;52.094;4.328;2024-02-28T03:12:22;43.16;38.95;56.15;;
57092;Laerm;42968;52.094;4.328;2024-02-28T03:14:48;57.13;39.21;74.41;;
57092;Laerm;42968;52.094;4.328;2024-02-28T03:17:13;57.54;40.43;69.24;;
57092;Laerm;42968;52.094;4.328;2024-02-28T03:19:40;52.02;39.92;70.57;;
57092;Laerm;42968;52.094;4.328;2024-02-28T03:22:05;44.19;39.34;61.31;;
57092;Laerm;42968;52.094;4.328;2024-02-28T03:24:30;50.49;40.23;67.28;;
57092;Laerm;42968;52.094;4.328;2024-02-28T03:26:56;55.52;39.08;73.08;;
57092;Laerm;42968;52.094;4.328;2024-02-28T03:29:21;57.43;39.58;72.86;;
57092;Laerm;42968;52.094;4.328;2024-02-28T03:31:46;58.58;39.92;75.47;;
57092;Laerm;42968;52.094;4.328;2024-02-28T03:34:12;56.90;38.87;71.20;;
57092;Laerm;42968;52.094;4.328;2024-02-28T03:36:37;41.69;39.21;43.72;;
57092;Laerm;42968;52.094;4.328;2024-02-28T03:39:02;54.19;39.08;67.51;;
57092;Laerm;42968;52.094;4.328;2024-02-28T03:41:28;54.86;39.70;77.15;;
57092;Laerm;42968;52.094;4.328;2024-02-28T03:43:54;57.72;40.43;75.49;;
57092;Laerm;42968;52.094;4.328;2024-02-28T03:46:19;52.23;39.46;71.71;;
57092;Laerm;42968;52.094;4.328;2024-02-28T03:48:44;51.20;37.32;70.89;;
57092;Laerm;42968;52.094;4.328;2024-02-28T03:51:09;52.33;39.46;73.65;;
57092;Laerm;42968;52.094;4.328;2024-02-28T03:53:35;59.06;40.98;75.68;;
57092;Laerm;42968;52.094;4.328;2024-02-28T03:56:00;55.42;39.81;71.83;;
57092;Laerm;42968;52.094;4.328;2024-02-28T03:58:25;58.08;40.03;73.02;;
57092;Laerm;42968;52.094;4.328;2024-02-28T04:00:50;54.33;39.81;74.97;;
57092;Laerm;42968;52.094;4.328;2024-02-28T04:03:16;56.28;39.81;70.35;;
57092;Laerm;42968;52.094;4.328;2024-02-28T04:05:41;61.34;41.89;75.29;;
57092;Laerm;42968;52.094;4.328;2024-02-28T04:08:07;61.02;41.46;76.06;;
57092;Laerm;42968;52.094;4.328;2024-02-28T04:10:32;60.13;40.13;75.82;;
57092;Laerm;42968;52.094;4.328;2024-02-28T04:12:57;56.90;39.34;75.12;;
57092;Laerm;42968;52.094;4.328;2024-02-28T04:15:23;58.30;40.13;75.45;;
57092;Laerm;42968;52.094;4.328;2024-02-28T04:17:50;59.92;40.33;74.46;;
57092;Laerm;42968;52.094;4.328;2024-02-28T04:20:16;60.27;40.62;76.93;;
57092;Laerm;42968;52.094;4.328;2024-02-28T04:22:41;63.88;46.56;74.70;;
57092;Laerm;42968;52.094;4.328;2024-02-28T04:25:08;61.54;43.14;74.77;;
57092;Laerm;42968;52.094;4.328;2024-02-28T04:27:33;56.85;40.23;71.76;;
57092;Laerm;42968;52.094;4.328;2024-02-28T04:29:58;62.37;42.59;76.60;;
57092;Laerm;42968;52.094;4.328;2024-02-28T04:32:24;64.84;43.77;77.28;;
57092;Laerm;42968;52.094;4.328;2024-02-28T04:34:49;63.61;43.46;75.67;;
57092;Laerm;42968;52.094;4.328;2024-02-28T04:37:14;61.71;44.54;76.26;;
57092;Laerm;42968;52.094;4.328;2024-02-28T04:39:39;59.58;41.38;74.29;;
57092;Laerm;42968;52.094;4.328;2024-02-28T04:42:05;61.52;41.14;78.26;;
57092;Laerm;42968;52.094;4.328;2024-02-28T04:44:30;64.20;41.14;78.32;;
57092;Laerm;42968;52.094;4.328;2024-02-28T04:46:56;64.57;41.06;76.70;;
57092;Laerm;42968;52.094;4.328;2024-02-28T04:49:21;65.25;44.80;81.78;;
57092;Laerm;42968;52.094;4.328;2024-02-28T04:51:48;64.84;48.46;79.76;;
57092;Laerm;42968;52.094;4.328;2024-02-28T04:54:13;63.45;44.03;79.01;;
57092;Laerm;42968;52.094;4.328;2024-02-28T04:56:41;65.60;44.65;78.40;;
57092;Laerm;42968;52.094;4.328;2024-02-28T04:59:07;61.98;43.39;74.82;;
57092;Laerm;42968;52.094;4.328;2024-02-28T05:01:33;61.62;41.46;77.60;;
57092;Laerm;42968;52.094;4.328;2024-02-28T05:04:00;63.08;42.82;74.88;;
57092;Laerm;42968;52.094;4.328;2024-02-28T05:06:25;66.50;45.07;79.92;;
57092;Laerm;42968;52.094;4.328;2024-02-28T05:08:50;66.44;47.20;78.09;;
57092;Laerm;42968;52.094;4.328;2024-02-28T05:11:16;65.53;46.23;76.59;;
57092;Laerm;42968;52.094;4.328;2024-02-28T05:13:41;63.61;45.37;77.11;;
57092;Laerm;42968;52.094;4.328;2024-02-28T05:16:11;66.15;47.18;78.32;;
57092;Laerm;42968;52.094;4.328;2024-02-28T05:18:37;64.43;42.41;73.98;;
57092;Laerm;42968;52.094;4.328;2024-02-28T05:21:02;67.21;46.97;79.23;;
57092;Laerm;42968;52.094;4.328;2024-02-28T05:23:28;66.38;49.71;79.14;;
57092;Laerm;42968;52.094;4.328;2024-02-28T05:25:54;68.57;48.07;79.46;;
57092;Laerm;42968;52.094;4.328;2024-02-28T05:28:19;69.32;46.93;80.18;;
57092;Laerm;42968;52.094;4.328;2024-02-28T05:30:44;70.59;51.56;87.25;;
57092;Laerm;42968;52.094;4.328;2024-02-28T05:33:10;68.79;47.00;85.30;;
57092;Laerm;42968;52.094;4.328;2024-02-28T05:35:36;68.76;49.52;82.65;;
57092;Laerm;42968;52.094;4.328;2024-02-28T05:38:02;67.76;50.05;78.80;;
57092;Laerm;42968;52.094;4.328;2024-02-28T05:40:27;69.36;51.62;79.61;;
57092;Laerm;42968;52.094;4.328;2024-02-28T05:42:53;67.38;46.59;81.66;;
57092;Laerm;42968;52.094;4.328;2024-02-28T05:45:18;68.16;48.58;77.90;;
57092;Laerm;42968;52.094;4.328;2024-02-28T05:47:44;68.87;47.04;80.91;;
57092;Laerm;42968;52.094;4.328;2024-02-28T05:50:09;68.51;46.40;81.86;;
57092;Laerm;42968;52.094;4.328;2024-02-28T05:52:35;68.86;56.27;76.16;;
57092;Laerm;42968;52.094;4.328;2024-02-28T05:55:00;68.48;49.34;82.55;;
57092;Laerm;42968;52.094;4.328;2024-02-28T05:57:26;69.06;49.39;77.17;;
57092;Laerm;42968;52.094;4.328;2024-02-28T05:59:51;68.02;50.09;76.26;;
57092;Laerm;42968;52.094;4.328;2024-02-28T06:02:16;69.59;49.60;82.67;;
57092;Laerm;42968;52.094;4.328;2024-02-28T06:04:42;71.08;51.02;86.44;;
57092;Laerm;42968;52.094;4.328;2024-02-28T06:07:07;67.56;51.66;82.25;;
57092;Laerm;42968;52.094;4.328;2024-02-28T06:09:32;69.33;51.53;78.18;;
57092;Laerm;42968;52.094;4.328;2024-02-28T06:11:58;68.10;46.25;79.75;;
57092;Laerm;42968;52.094;4.328;2024-02-28T06:14:23;69.13;45.89;79.00;;
57092;Laerm;42968;52.094;4.328;2024-02-28T06:16:48;70.68;49.59;78.13;;
57092;Laerm;42968;52.094;4.328;2024-02-28T06:19:13;68.93;49.56;78.51;;
57092;Laerm;42968;52.094;4.328;2024-02-28T06:21:39;68.47;45.75;77.04;;
57092;Laerm;42968;52.094;4.328;2024-02-28T06:24:04;69.24;50.17;79.24;;
57092;Laerm;42968;52.094;4.328;2024-02-28T06:26:30;70.25;48.43;81.14;;
57092;Laerm;42968;52.094;4.328;2024-02-28T06:28:56;71.03;52.93;81.20;;
57092;Laerm;42968;52.094;4.328;2024-02-28T06:31:26;70.37;49.83;81.96;;
57092;Laerm;42968;52.094;4.328;2024-02-28T06:33:51;68.72;53.24;78.00;;
57092;Laerm;42968;52.094;4.328;2024-02-28T06:36:16;69.94;49.33;85.44;;
57092;Laerm;42968;52.094;4.328;2024-02-28T06:38:42;70.38;54.91;83.84;;
57092;Laerm;42968;52.094;4.328;2024-02-28T06:41:07;69.71;48.36;79.12;;
57092;Laerm;42968;52.094;4.328;2024-02-28T06:43:33;70.19;50.27;79.31;;
57092;Laerm;42968;52.094;4.328;2024-02-28T06:45:58;69.11;50.10;79.21;;
57092;Laerm;42968;52.094;4.328;2024-02-28T06:48:23;69.11;57.14;77.06;;
57092;Laerm;42968;52.094;4.328;2024-02-28T06:50:48;67.67;50.48;78.25;;
57092;Laerm;42968;52.094;4.328;2024-02-28T06:53:14;69.45;47.83;80.72;;
57092;Laerm;42968;52.094;4.328;2024-02-28T06:55:39;70.19;55.57;80.35;;
57092;Laerm;42968;52.094;4.328;2024-02-28T06:58:04;69.80;48.94;82.70;;
57092;Laerm;42968;52.094;4.328;2024-02-28T07:00:30;70.59;49.65;80.70;;
57092;Laerm;42968;52.094;4.328;2024-02-28T07:02:55;69.31;54.21;80.75;;
57092;Laerm;42968;52.094;4.328;2024-02-28T07:05:21;70.22;53.06;79.81;;
57092;Laerm;42968;52.094;4.328;2024-02-28T07:07:46;69.30;56.40;81.97;;
57092;Laerm;42968;52.094;4.328;2024-02-28T07:10:11;69.23;53.82;79.27;;
57092;Laerm;42968;52.094;4.328;2024-02-28T07:12:37;69.26;52.88;77.50;;
57092;Laerm;42968;52.094;4.328;2024-02-28T07:15:02;70.09;61.21;78.38;;
57092;Laerm;42968;52.094;4.328;2024-02-28T07:17:27;69.58;59.32;77.89;;
57092;Laerm;42968;52.094;4.328;2024-02-28T07:19:52;72.06;61.02;82.65;;
57092;Laerm;42968;52.094;4.328;2024-02-28T07:22:19;70.70;56.68;81.66;;
57092;Laerm;42968;52.094;4.328;2024-02-28T07:24:44;70.13;55.06;78.53;;
57092;Laerm;42968;52.094;4.328;2024-02-28T07:27:09;70.59;51.84;77.63;;
57092;Laerm;42968;52.094;4.328;2024-02-28T07:29:36;69.89;55.26;77.63;;
57092;Laerm;42968;52.094;4.328;2024-02-28T07:32:01;68.24;53.45;76.83;;
57092;Laerm;42968;52.094;4.328;2024-02-28T07:34:27;71.32;54.41;77.73;;
57092;Laerm;42968;52.094;4.328;2024-02-28T07:36:53;70.45;51.30;78.29;;
57092;Laerm;42968;52.094;4.328;2024-02-28T07:39:18;70.38;52.89;79.89;;
57092;Laerm;42968;52.094;4.328;2024-02-28T07:41:43;69.70;57.72;76.63;;
57092;Laerm;42968;52.094;4.328;2024-02-28T07:44:08;71.31;51.33;81.03;;
57092;Laerm;42968;52.094;4.328;2024-02-28T07:46:34;72.14;55.77;80.34;;
57092;Laerm;42968;52.094;4.328;2024-02-28T07:49:00;68.88;51.84;81.53;;
57092;Laerm;42968;52.094;4.328;2024-02-28T07:51:26;70.12;53.02;78.81;;
57092;Laerm;42968;52.094;4.328;2024-02-28T07:53:51;71.50;52.17;84.39;;
57092;Laerm;42968;52.094;4.328;2024-02-28T07:56:16;69.36;58.06;76.98;;
57092;Laerm;42968;52.094;4.328;2024-02-28T07:58:42;69.35;56.06;84.95;;
57092;Laerm;42968;52.094;4.328;2024-02-28T08:01:08;70.36;59.12;78.95;;
57092;Laerm;42968;52.094;4.328;2024-02-28T08:03:33;70.71;47.08;78.75;;
57092;Laerm;42968;52.094;4.328;2024-02-28T08:05:58;70.36;50.25;78.36;;
57092;Laerm;42968;52.094;4.328;2024-02-28T08:08:23;71.03;49.74;82.32;;
57092;Laerm;42968;52.094;4.328;2024-02-28T08:10:48;69.43;54.11;77.15;;
57092;Laerm;42968;52.094;4.328;2024-02-28T08:13:14;68.46;48.23;77.66;;
57092;Laerm;42968;52.094;4.328;2024-02-28T08:15:39;69.52;54.16;80.21;;
57092;Laerm;42968;52.094;4.328;2024-02-28T08:18:04;67.72;53.66;74.91;;
57092;Laerm;42968;52.094;4.328;2024-02-28T08:20:30;70.12;49.81;83.27;;
57092;Laerm;42968;52.094;4.328;2024-02-28T08:22:55;69.97;47.24;78.18;;
57092;Laerm;42968;52.094;4.328;2024-02-28T08:25:22;69.21;47.79;77.92;;
57092;Laerm;42968;52.094;4.328;2024-02-28T08:27:47;68.26;49.77;76.46;;
57092;Laerm;42968;52.094;4.328;2024-02-28T08:30:13;70.58;55.38;78.98;;
57092;Laerm;42968;52.094;4.328;2024-02-28T08:32:40;70.12;51.33;82.56;;
57092;Laerm;42968;52.094;4.328;2024-02-28T08:35:07;70.23;47.54;79.21;;
57092;Laerm;42968;52.094;4.328;2024-02-28T08:37:33;69.80;47.77;77.23;;
57092;Laerm;42968;52.094;4.328;2024-02-28T08:39:58;69.96;51.33;81.12;;
57092;Laerm;42968;52.094;4.328;2024-02-28T08:42:26;71.32;54.48;87.42;;
57092;Laerm;42968;52.094;4.328;2024-02-28T08:44:52;76.55;58.39;109.60;;
57092;Laerm;42968;52.094;4.328;2024-02-28T08:47:17;69.06;48.84;79.97;;
57092;Laerm;42968;52.094;4.328;2024-02-28T08:49:44;76.00;48.40;99.21;;
57092;Laerm;42968;52.094;4.328;2024-02-28T08:52:09;68.39;51.50;78.78;;
57092;Laerm;42968;52.094;4.328;2024-02-28T08:54:34;69.73;57.35;82.87;;
57092;Laerm;42968;52.094;4.328;2024-02-28T08:57:00;69.66;53.29;80.13;;
57092;Laerm;42968;52.094;4.328;2024-02-28T08:59:25;68.87;56.74;83.21;;
57092;Laerm;42968;52.094;4.328;2024-02-28T09:01:50;68.62;48.05;76.23;;
57092;Laerm;42968;52.094;4.328;2024-02-28T09:04:16;69.66;51.13;78.30;;
57092;Laerm;42968;52.094;4.328;2024-02-28T09:06:41;69.40;47.83;80.05;;
57092;Laerm;42968;52.094;4.328;2024-02-28T09:09:06;69.78;57.23;80.79;;
57092;Laerm;42968;52.094;4.328;2024-02-28T09:11:32;73.92;59.49;96.94;;
57092;Laerm;42968;52.094;4.328;2024-02-28T09:13:57;68.84;49.57;80.85;;
57092;Laerm;42968;52.094;4.328;2024-02-28T09:16:22;77.16;56.02;101.72;;
57092;Laerm;42968;52.094;4.328;2024-02-28T09:18:47;79.29;53.64;106.87;;
57092;Laerm;42968;52.094;4.328;2024-02-28T09:21:13;75.08;49.96;100.50;;
57092;Laerm;42968;52.094;4.328;2024-02-28T09:23:40;75.64;57.31;101.30;;
57092;Laerm;42968;52.094;4.328;2024-02-28T09:26:05;74.72;49.62;96.73;;
57092;Laerm;42968;52.094;4.328;2024-02-28T09:28:31;75.79;50.30;100.45;;
57092;Laerm;42968;52.094;4.328;2024-02-28T09:30:56;74.25;50.23;100.11;;
57092;Laerm;42968;52.094;4.328;2024-02-28T09:33:22;72.41;54.95;97.08;;
57092;Laerm;42968;52.094;4.328;2024-02-28T09:35:47;76.11;51.70;101.71;;
57092;Laerm;42968;52.094;4.328;2024-02-28T09:38:12;78.46;52.06;101.99;;
57092;Laerm;42968;52.094;4.328;2024-02-28T09:40:37;79.34;54.58;99.50;;
57092;Laerm;42968;52.094;4.328;2024-02-28T09:43:03;72.41;49.46;91.04;;
57092;Laerm;42968;52.094;4.328;2024-02-28T09:45:30;74.84;49.36;96.37;;
57092;Laerm;42968;52.094;4.328;2024-02-28T09:47:56;73.22;57.34;87.64;;
57092;Laerm;42968;52.094;4.328;2024-02-28T09:50:21;69.11;52.13;82.66;;
57092;Laerm;42968;52.094;4.328;2024-02-28T09:52:47;70.68;54.04;87.68;;
57092;Laerm;42968;52.094;4.328;2024-02-28T09:55:12;78.72;51.53;101.27;;
57092;Laerm;42968;52.094;4.328;2024-02-28T09:57:37;78.66;48.34;99.37;;
57092;Laerm;42968;52.094;4.328;2024-02-28T10:00:03;79.94;54.58;100.03;;
57092;Laerm;42968;52.094;4.328;2024-02-28T10:02:29;83.23;55.33;112.46;;
57092;Laerm;42968;52.094;4.328;2024-02-28T10:04:55;87.18;51.19;104.95;;
57092;Laerm;42968;52.094;4.328;2024-02-28T10:07:20;86.09;47.90;109.41;;
57092;Laerm;42968;52.094;4.328;2024-02-28T10:09:46;82.98;51.22;106.32;;
57092;Laerm;42968;52.094;4.328;2024-02-28T10:12:12;79.47;53.20;106.35;;
57092;Laerm;42968;52.094;4.328;2024-02-28T10:14:37;85.44;54.75;111.31;;
57092;Laerm;42968;52.094;4.328;2024-02-28T10:17:03;80.46;52.15;106.84;;
57092;Laerm;42968;52.094;4.328;2024-02-28T10:19:29;71.44;52.29;102.01;;
57092;Laerm;42968;52.094;4.328;2024-02-28T10:21:55;69.91;52.57;89.90;;
57092;Laerm;42968;52.094;4.328;2024-02-28T10:24:20;70.12;59.00;81.98;;
57092;Laerm;42968;52.094;4.328;2024-02-28T10:26:46;69.09;52.04;77.10;;
57092;Laerm;42968;52.094;4.328;2024-02-28T10:29:20;69.68;49.34;78.27;;
57092;Laerm;42968;52.094;4.328;2024-02-28T10:31:45;69.70;52.13;92.82;;
57092;Laerm;42968;52.094;4.328;2024-02-28T10:34:12;69.14;52.03;76.77;;
57092;Laerm;42968;52.094;4.328;2024-02-28T10:36:39;69.32;50.70;78.57;;
57092;Laerm;42968;52.094;4.328;2024-02-28T10:39:05;69.30;51.52;77.64;;
57092;Laerm;42968;52.094;4.328;2024-02-28T10:41:32;67.39;48.13;76.89;;
57092;Laerm;42968;52.094;4.328;2024-02-28T10:43:58;68.74;51.17;78.62;;
57092;Laerm;42968;52.094;4.328;2024-02-28T10:46:24;69.57;53.64;81.78;;
57092;Laerm;42968;52.094;4.328;2024-02-28T10:48:50;69.89;56.30;83.52;;
57092;Laerm;42968;52.094;4.328;2024-02-28T10:51:18;70.14;49.65;83.67;;
57092;Laerm;42968;52.094;4.328;2024-02-28T10:53:45;69.03;52.60;77.87;;
57092;Laerm;42968;52.094;4.328;2024-02-28T10:56:11;69.00;50.84;79.97;;
57092;Laerm;42968;52.094;4.328;2024-02-28T10:59:01;69.81;56.32;78.74;;
57092;Laerm;42968;52.094;4.328;2024-02-28T11:01:25;67.96;53.11;78.23;;
57092;Laerm;42968;52.094;4.328;2024-02-28T11:03:50;68.83;51.33;78.50;;
57092;Laerm;42968;52.094;4.328;2024-02-28T11:06:17;70.10;49.53;81.42;;
57092;Laerm;42968;52.094;4.328;2024-02-28T11:08:45;68.67;50.09;77.05;;
57092;Laerm;42968;52.094;4.328;2024-02-28T11:11:13;69.67;47.52;79.72;;
57092;Laerm;42968;52.094;4.328;2024-02-28T11:13:39;77.71;56.70;96.93;;
57092;Laerm;42968;52.094;4.328;2024-02-28T11:16:10;69.96;50.25;84.66;;
57092;Laerm;42968;52.094;4.328;2024-02-28T11:18:36;70.14;53.07;76.56;;
57092;Laerm;42968;52.094;4.328;2024-02-28T11:21:15;69.17;47.32;76.89;;
57092;Laerm;42968;52.094;4.328;2024-02-28T11:23:41;69.08;52.50;81.67;;
57092;Laerm;42968;52.094;4.328;2024-02-28T11:26:11;70.41;57.12;78.63;;
57092;Laerm;42968;52.094;4.328;2024-02-28T11:28:38;67.70;47.61;76.06;;
57092;Laerm;42968;52.094;4.328;2024-02-28T11:31:03;68.89;52.21;77.85;;
57092;Laerm;42968;52.094;4.328;2024-02-28T11:33:28;69.50;51.89;80.81;;
57092;Laerm;42968;52.094;4.328;2024-02-28T11:35:57;69.26;48.81;77.78;;
57092;Laerm;42968;52.094;4.328;2024-02-28T11:38:26;70.52;51.12;78.42;;
57092;Laerm;42968;52.094;4.328;2024-02-28T11:40:52;69.71;51.30;92.91;;
57092;Laerm;42968;52.094;4.328;2024-02-28T11:43:17;69.03;52.26;77.38;;
57092;Laerm;42968;52.094;4.328;2024-02-28T11:45:43;70.56;54.38;88.28;;
57092;Laerm;42968;52.094;4.328;2024-02-28T11:48:12;69.45;52.62;81.20;;
57092;Laerm;42968;52.094;4.328;2024-02-28T11:50:37;71.29;52.98;85.31;;
57092;Laerm;42968;52.094;4.328;2024-02-28T11:53:02;69.30;52.35;85.10;;
57092;Laerm;42968;52.094;4.328;2024-02-28T11:55:29;69.18;57.40;80.00;;
57092;Laerm;42968;52.094;4.328;2024-02-28T11:57:55;68.21;52.11;86.23;;
57092;Laerm;42968;52.094;4.328;2024-02-28T12:00:20;71.00;54.95;85.23;;
57092;Laerm;42968;52.094;4.328;2024-02-28T12:02:47;70.61;48.69;83.45;;
57092;Laerm;42968;52.094;4.328;2024-02-28T12:05:12;69.33;54.77;82.15;;
57092;Laerm;42968;52.094;4.328;2024-02-28T12:07:37;69.20;53.13;82.98;;
57092;Laerm;42968;52.094;4.328;2024-02-28T12:10:03;68.00;48.29;76.79;;
57092;Laerm;42968;52.094;4.328;2024-02-28T12:12:29;69.24;50.50;78.41;;
57092;Laerm;42968;52.094;4.328;2024-02-28T12:14:57;70.18;47.65;87.95;;
57092;Laerm;42968;52.094;4.328;2024-02-28T12:17:24;69.51;52.16;85.21;;
57092;Laerm;42968;52.094;4.328;2024-02-28T12:19:49;69.84;52.09;84.44;;
57092;Laerm;42968;52.094;4.328;2024-02-28T12:22:16;70.02;53.04;82.50;;
57092;Laerm;42968;52.094;4.328;2024-02-28T12:24:41;69.43;49.44;76.84;;
57092;Laerm;42968;52.094;4.328;2024-02-28T12:27:06;69.85;47.46;80.58;;
57092;Laerm;42968;52.094;4.328;2024-02-28T12:29:32;70.78;52.55;80.40;;
57092;Laerm;42968;52.094;4.328;2024-02-28T12:31:57;70.51;48.64;80.56;;
57092;Laerm;42968;52.094;4.328;2024-02-28T12:34:22;69.83;49.47;78.91;;
57092;Laerm;42968;52.094;4.328;2024-02-28T12:36:47;69.35;56.62;80.26;;
57092;Laerm;42968;52.094;4.328;2024-02-28T12:39:13;69.79;47.48;81.62;;
57092;Laerm;42968;52.094;4.328;2024-02-28T12:41:38;71.24;52.21;80.61;;
57092;Laerm;42968;52.094;4.328;2024-02-28T12:44:04;69.33;47.54;78.62;;
57092;Laerm;42968;52.094;4.328;2024-02-28T12:46:30;69.20;50.89;79.81;;
57092;Laerm;42968;52.094;4.328;2024-02-28T12:48:55;70.13;54.72;78.17;;
57092;Laerm;42968;52.094;4.328;2024-02-28T12:51:35;67.85;53.18;78.14;;
57092;Laerm;42968;52.094;4.328;2024-02-28T12:54:00;70.14;53.98;81.00;;
57092;Laerm;42968;52.094;4.328;2024-02-28T12:56:25;71.14;57.41;80.95;;
57092;Laerm;42968;52.094;4.328;2024-02-28T12:58:51;70.14;53.62;78.36;;
57092;Laerm;42968;52.094;4.328;2024-02-28T13:01:16;69.32;49.70;76.64;;
57092;Laerm;42968;52.094;4.328;2024-02-28T13:03:41;70.13;53.42;76.67;;
57092;Laerm;42968;52.094;4.328;2024-02-28T13:06:06;81.72;51.50;103.43;;
57092;Laerm;42968;52.094;4.328;2024-02-28T13:08:31;69.19;52.29;79.32;;
57092;Laerm;42968;52.094;4.328;2024-02-28T13:10:57;69.17;54.09;78.34;;
57092;Laerm;42968;52.094;4.328;2024-02-28T13:13:22;70.09;54.78;76.31;;
57092;Laerm;42968;52.094;4.328;2024-02-28T13:15:47;69.34;51.90;76.73;;
57092;Laerm;42968;52.094;4.328;2024-02-28T13:18:13;68.98;54.69;76.42;;
57092;Laerm;42968;52.094;4.328;2024-02-28T13:20:39;70.15;54.83;80.44;;
57092;Laerm;42968;52.094;4.328;2024-02-28T13:23:05;70.09;59.08;81.04;;
57092;Laerm;42968;52.094;4.328;2024-02-28T13:25:30;68.82;55.03;78.69;;
57092;Laerm;42968;52.094;4.328;2024-02-28T13:27:56;69.94;57.03;80.70;;
57092;Laerm;42968;52.094;4.328;2024-02-28T13:30:21;70.06;49.58;76.81;;
57092;Laerm;42968;52.094;4.328;2024-02-28T13:32:47;69.51;52.49;75.55;;
57092;Laerm;42968;52.094;4.328;2024-02-28T13:35:12;70.51;47.12;82.34;;